createdAt,value
2018-07-08T00:00:22.232Z,16.64
2018-07-08T00:01:53.804Z,16.68
2018-07-08T00:03:25.375Z,16.67
2018-07-08T00:04:56.946Z,16.75
2018-07-08T00:06:28.517Z,16.68
2018-07-08T00:08:00.090Z,16.61
2018-07-08T00:09:31.661Z,16.70
2018-07-08T00:11:03.233Z,16.61
2018-07-08T00:12:34.804Z,16.61
2018-07-08T00:14:06.575Z,16.73
2018-07-08T00:15:37.948Z,16.67
2018-07-08T00:17:09.519Z,16.76
2018-07-08T00:18:41.091Z,17.07
2018-07-08T00:20:12.662Z,17.33
2018-07-08T00:21:44.232Z,17.21
2018-07-08T00:23:15.803Z,16.85
2018-07-08T00:24:48.148Z,16.60
2018-07-08T00:26:18.946Z,16.57
2018-07-08T00:27:50.517Z,16.39
2018-07-08T00:29:22.089Z,16.30
2018-07-08T00:30:53.863Z,16.39
2018-07-08T00:32:25.826Z,16.71
2018-07-08T00:33:56.860Z,17.16
2018-07-08T00:35:28.373Z,17.21
2018-07-08T00:36:59.945Z,17.04
2018-07-08T00:38:31.516Z,17.01
2018-07-08T00:40:03.087Z,16.96
2018-07-08T00:41:34.912Z,16.96
2018-07-08T00:43:06.231Z,16.97
2018-07-08T00:44:37.901Z,16.82
2018-07-08T00:46:09.372Z,16.75
2018-07-08T00:47:40.943Z,16.63
2018-07-08T00:49:12.515Z,16.42
2018-07-08T00:50:44.185Z,16.56
2018-07-08T00:52:15.656Z,16.48
2018-07-08T00:53:47.228Z,16.45
2018-07-08T00:55:18.798Z,16.48
2018-07-08T00:56:50.370Z,16.39
2018-07-08T00:58:21.941Z,16.38
2018-07-08T00:59:53.512Z,16.38
2018-07-08T01:01:25.086Z,16.31
2018-07-08T01:02:56.654Z,16.33
2018-07-08T01:04:28.226Z,16.17
2018-07-08T01:05:59.796Z,16.17
2018-07-08T01:07:31.367Z,16.17
2018-07-08T01:09:03.039Z,16.17
2018-07-08T01:10:34.509Z,16.15
2018-07-08T01:12:06.080Z,16.15
2018-07-08T01:13:37.652Z,16.33
2018-07-08T01:15:09.222Z,16.34
2018-07-08T01:16:40.796Z,16.31
2018-07-08T01:18:12.364Z,16.14
2018-07-08T01:19:43.935Z,16.04
2018-07-08T01:21:15.506Z,15.96
2018-07-08T01:22:47.077Z,15.96
2018-07-08T01:24:18.648Z,16.04
2018-07-08T01:25:50.221Z,16.07
2018-07-08T01:27:21.891Z,15.87
2018-07-08T01:28:53.361Z,15.76
2018-07-08T01:30:24.932Z,15.74
2018-07-08T01:31:56.503Z,15.67
2018-07-08T01:33:28.074Z,15.62
2018-07-08T01:34:59.644Z,15.60
2018-07-08T01:36:31.215Z,15.64
2018-07-08T01:38:02.786Z,15.57
2018-07-08T01:39:34.358Z,15.59
2018-07-08T01:41:05.928Z,15.65
2018-07-08T01:42:37.499Z,15.64
2018-07-08T01:44:09.069Z,15.67
2018-07-08T01:45:40.890Z,15.57
2018-07-08T01:47:12.211Z,15.62
2018-07-08T01:48:43.781Z,15.62
2018-07-08T01:50:15.352Z,15.75
2018-07-08T01:51:46.922Z,15.60
2018-07-08T01:53:18.497Z,15.65
2018-07-08T01:54:50.067Z,15.59
2018-07-08T01:56:21.634Z,15.54
2018-07-08T01:57:53.206Z,15.65
2018-07-08T01:59:24.776Z,15.65
2018-07-08T02:00:56.354Z,15.49
2018-07-08T02:02:27.917Z,15.46
2018-07-08T02:03:59.589Z,15.38
2018-07-08T02:05:31.058Z,15.32
2018-07-08T02:07:02.676Z,15.34
2018-07-08T02:08:34.199Z,15.36
2018-07-08T02:10:05.770Z,15.20
2018-07-08T02:11:37.344Z,15.19
2018-07-08T02:13:08.912Z,15.34
2018-07-08T02:14:40.482Z,15.41
2018-07-08T02:16:12.152Z,15.39
2018-07-08T02:17:43.626Z,15.29
2018-07-08T02:19:15.194Z,15.31
2018-07-08T02:20:46.765Z,15.29
2018-07-08T02:22:18.434Z,15.28
2018-07-08T02:23:49.905Z,15.32
2018-07-08T02:25:21.476Z,15.21
2018-07-08T02:26:53.045Z,15.23
2018-07-08T02:28:24.616Z,15.19
2018-07-08T02:29:56.186Z,15.09
2018-07-08T02:31:27.757Z,15.16
2018-07-08T02:32:59.327Z,15.03
2018-07-08T02:34:31.148Z,14.95
2018-07-08T02:36:02.468Z,14.83
2018-07-08T02:37:34.038Z,14.80
2018-07-08T02:39:05.609Z,14.70
2018-07-08T02:40:37.380Z,14.72
2018-07-08T02:42:08.749Z,14.68
2018-07-08T02:43:40.319Z,14.75
2018-07-08T02:45:11.889Z,14.86
2018-07-08T02:46:43.561Z,14.89
2018-07-08T02:48:15.030Z,14.94
2018-07-08T02:49:46.600Z,14.86
2018-07-08T02:51:18.170Z,14.81
2018-07-08T02:52:49.741Z,14.77
2018-07-08T02:54:21.314Z,14.78
2018-07-08T02:55:52.881Z,14.70
2018-07-08T02:57:24.451Z,14.62
2018-07-08T02:58:56.121Z,14.73
2018-07-08T03:00:27.592Z,14.78
2018-07-08T03:01:59.172Z,14.99
2018-07-08T03:03:30.731Z,15.01
2018-07-08T03:05:02.566Z,15.17
2018-07-08T03:06:33.877Z,15.10
2018-07-08T03:08:05.441Z,15.03
2018-07-08T03:09:37.011Z,15.01
2018-07-08T03:11:08.581Z,15.01
2018-07-08T03:12:40.160Z,14.98
2018-07-08T03:14:11.727Z,14.86
2018-07-08T03:15:43.291Z,14.92
2018-07-08T03:17:15.063Z,14.72
2018-07-08T03:18:46.430Z,14.75
2018-07-08T03:20:18.001Z,14.81
2018-07-08T03:21:49.573Z,14.77
2018-07-08T03:23:21.141Z,15.03
2018-07-08T03:24:52.712Z,14.94
2018-07-08T03:26:24.283Z,15.01
2018-07-08T03:27:55.850Z,14.92
2018-07-08T03:29:27.420Z,14.77
2018-07-08T03:30:58.991Z,14.64
2018-07-08T03:32:30.560Z,14.57
2018-07-08T03:34:02.130Z,14.47
2018-07-08T03:35:33.801Z,14.51
2018-07-08T03:37:05.274Z,14.45
2018-07-08T03:38:36.840Z,14.37
2018-07-08T03:40:08.410Z,14.36
2018-07-08T03:41:39.980Z,14.36
2018-07-08T03:43:11.549Z,14.33
2018-07-08T03:44:43.120Z,14.39
2018-07-08T03:46:14.689Z,14.40
2018-07-08T03:47:46.359Z,14.40
2018-07-08T03:49:17.829Z,14.39
2018-07-08T03:50:49.399Z,14.28
2018-07-08T03:52:20.969Z,14.25
2018-07-08T03:53:52.638Z,14.21
2018-07-08T03:55:25.811Z,14.20
2018-07-08T03:56:55.678Z,14.22
2018-07-08T03:58:27.248Z,14.24
2018-07-08T03:59:58.817Z,14.20
2018-07-08T04:01:30.388Z,14.22
2018-07-08T04:03:01.958Z,14.28
2018-07-08T04:04:33.527Z,14.29
2018-07-08T04:06:05.347Z,14.22
2018-07-08T04:07:36.666Z,14.21
2018-07-08T04:09:08.236Z,14.15
2018-07-08T04:10:39.806Z,14.10
2018-07-08T04:12:11.476Z,14.03
2018-07-08T04:13:42.946Z,14.02
2018-07-08T04:15:14.528Z,14.04
2018-07-08T04:16:46.085Z,14.21
2018-07-08T04:18:17.755Z,14.04
2018-07-08T04:19:49.224Z,14.15
2018-07-08T04:21:20.794Z,14.24
2018-07-08T04:22:52.363Z,14.21
2018-07-08T04:24:23.936Z,14.14
2018-07-08T04:25:55.503Z,14.15
2018-07-08T04:27:27.072Z,14.18
2018-07-08T04:28:58.642Z,14.03
2018-07-08T04:30:30.828Z,14.12
2018-07-08T04:32:01.781Z,14.09
2018-07-08T04:33:33.350Z,14.18
2018-07-08T04:35:04.921Z,14.17
2018-07-08T04:36:36.741Z,14.12
2018-07-08T04:38:08.064Z,14.10
2018-07-08T04:39:39.629Z,14.07
2018-07-08T04:41:11.199Z,14.12
2018-07-08T04:42:42.770Z,14.15
2018-07-08T04:44:14.338Z,14.12
2018-07-08T04:45:45.908Z,14.24
2018-07-08T04:47:17.478Z,14.27
2018-07-08T04:48:49.296Z,14.18
2018-07-08T04:50:20.617Z,14.21
2018-07-08T04:51:52.185Z,14.18
2018-07-08T04:53:23.754Z,14.22
2018-07-08T04:54:55.324Z,14.09
2018-07-08T04:56:26.894Z,14.02
2018-07-08T04:57:58.464Z,14.12
2018-07-08T04:59:30.033Z,14.09
2018-07-08T05:01:01.730Z,14.12
2018-07-08T05:02:33.173Z,14.12
2018-07-08T05:04:04.741Z,14.12
2018-07-08T05:05:36.311Z,14.17
2018-07-08T05:07:07.980Z,14.06
2018-07-08T05:08:39.449Z,14.14
2018-07-08T05:10:11.019Z,14.09
2018-07-08T05:11:42.588Z,14.17
2018-07-08T05:13:14.159Z,14.14
2018-07-08T05:14:45.727Z,14.10
2018-07-08T05:16:17.296Z,14.03
2018-07-08T05:17:48.865Z,14.00
2018-07-08T05:19:20.437Z,13.91
2018-07-08T05:20:52.004Z,13.91
2018-07-08T05:22:23.573Z,13.87
2018-07-08T05:23:55.143Z,13.82
2018-07-08T05:25:26.812Z,13.82
2018-07-08T05:26:58.281Z,13.71
2018-07-08T05:28:29.850Z,13.70
2018-07-08T05:30:01.420Z,13.60
2018-07-08T05:31:32.988Z,13.69
2018-07-08T05:33:04.561Z,13.67
2018-07-08T05:34:36.128Z,13.69
2018-07-08T05:36:07.697Z,13.81
2018-07-08T05:37:39.528Z,13.81
2018-07-08T05:39:10.836Z,13.82
2018-07-08T05:40:42.407Z,13.95
2018-07-08T05:42:13.974Z,13.79
2018-07-08T05:43:45.644Z,13.85
2018-07-08T05:45:17.113Z,13.78
2018-07-08T05:46:48.682Z,13.89
2018-07-08T05:48:20.251Z,13.95
2018-07-08T05:49:51.819Z,14.00
2018-07-08T05:51:23.389Z,14.03
2018-07-08T05:52:54.958Z,13.95
2018-07-08T05:54:26.527Z,13.97
2018-07-08T05:55:58.096Z,13.85
2018-07-08T05:57:29.666Z,13.87
2018-07-08T05:59:01.235Z,13.70
2018-07-08T06:00:32.804Z,13.62
2018-07-08T06:02:04.473Z,13.59
2018-07-08T06:03:35.942Z,13.60
2018-07-08T06:05:07.512Z,13.60
2018-07-08T06:06:39.081Z,13.49
2018-07-08T06:08:10.900Z,13.44
2018-07-08T06:09:42.218Z,13.52
2018-07-08T06:11:13.789Z,13.49
2018-07-08T06:12:45.364Z,13.57
2018-07-08T06:14:16.926Z,13.46
2018-07-08T06:15:48.495Z,13.41
2018-07-08T06:17:20.065Z,13.48
2018-07-08T06:18:51.634Z,13.54
2018-07-08T06:20:23.302Z,13.57
2018-07-08T06:21:54.771Z,13.66
2018-07-08T06:23:26.341Z,13.60
2018-07-08T06:24:57.941Z,13.71
2018-07-08T06:26:29.478Z,13.73
2018-07-08T06:28:01.049Z,13.73
2018-07-08T06:29:32.620Z,13.63
2018-07-08T06:31:04.186Z,13.70
2018-07-08T06:32:35.754Z,13.60
2018-07-08T06:34:07.325Z,13.54
2018-07-08T06:35:38.893Z,13.49
2018-07-08T06:37:10.461Z,13.54
2018-07-08T06:38:42.131Z,13.57
2018-07-08T06:40:13.600Z,13.55
2018-07-08T06:41:45.169Z,13.51
2018-07-08T06:43:16.737Z,13.55
2018-07-08T06:44:48.307Z,13.64
2018-07-08T06:46:19.878Z,13.60
2018-07-08T06:47:51.447Z,13.60
2018-07-08T06:49:23.014Z,13.63
2018-07-08T06:50:54.683Z,13.87
2018-07-08T06:52:26.153Z,13.87
2018-07-08T06:53:57.720Z,13.71
2018-07-08T06:55:29.843Z,13.85
2018-07-08T06:57:00.963Z,14.07
2018-07-08T06:58:32.530Z,14.02
2018-07-08T07:00:03.998Z,13.92
2018-07-08T07:01:35.568Z,13.92
2018-07-08T07:03:07.134Z,13.82
2018-07-08T07:04:38.704Z,13.82
2018-07-08T07:06:10.272Z,13.63
2018-07-08T07:07:41.842Z,13.66
2018-07-08T07:09:13.411Z,13.52
2018-07-08T07:10:44.981Z,13.54
2018-07-08T07:12:16.549Z,13.52
2018-07-08T07:13:48.118Z,13.44
2018-07-08T07:15:19.796Z,13.42
2018-07-08T07:16:51.256Z,13.48
2018-07-08T07:18:22.825Z,13.44
2018-07-08T07:19:54.395Z,13.39
2018-07-08T07:21:26.063Z,13.39
2018-07-08T07:22:57.535Z,13.39
2018-07-08T07:24:29.101Z,13.32
2018-07-08T07:26:00.669Z,13.20
2018-07-08T07:27:32.239Z,13.07
2018-07-08T07:29:03.809Z,13.17
2018-07-08T07:30:35.376Z,13.19
2018-07-08T07:32:06.945Z,13.05
2018-07-08T07:33:38.867Z,13.17
2018-07-08T07:35:10.083Z,13.12
2018-07-08T07:36:41.652Z,12.96
2018-07-08T07:38:13.221Z,13.14
2018-07-08T07:39:45.040Z,13.05
2018-07-08T07:41:16.358Z,13.03
2018-07-08T07:42:47.927Z,13.04
2018-07-08T07:44:19.497Z,13.00
2018-07-08T07:45:51.065Z,13.01
2018-07-08T07:47:22.634Z,12.93
2018-07-08T07:48:54.203Z,12.90
2018-07-08T07:50:25.772Z,12.96
2018-07-08T07:51:57.541Z,12.90
2018-07-08T07:53:28.909Z,12.90
2018-07-08T07:55:00.478Z,12.78
2018-07-08T07:56:32.047Z,12.82
2018-07-08T07:58:03.616Z,12.78
2018-07-08T07:59:35.185Z,12.85
2018-07-08T08:01:06.753Z,12.77
2018-07-08T08:02:38.322Z,12.78
2018-07-08T08:04:09.890Z,12.83
2018-07-08T08:05:41.459Z,12.79
2018-07-08T08:07:13.028Z,12.75
2018-07-08T08:08:44.625Z,12.67
2018-07-08T08:10:16.545Z,12.70
2018-07-08T08:11:47.762Z,12.68
2018-07-08T08:13:19.330Z,12.65
2018-07-08T08:14:50.900Z,12.78
2018-07-08T08:16:22.469Z,12.68
2018-07-08T08:17:54.009Z,12.79
2018-07-08T08:19:25.579Z,12.72
2018-07-08T08:20:57.196Z,12.70
2018-07-08T08:22:28.828Z,12.78
2018-07-08T08:24:00.283Z,12.64
2018-07-08T08:25:31.852Z,12.68
2018-07-08T08:27:03.427Z,12.68
2018-07-08T08:28:35.091Z,12.62
2018-07-08T08:30:06.557Z,12.67
2018-07-08T08:31:38.126Z,12.67
2018-07-08T08:33:09.697Z,12.70
2018-07-08T08:34:41.263Z,12.65
2018-07-08T08:36:12.831Z,12.68
2018-07-08T08:37:44.399Z,12.74
2018-07-08T08:39:15.968Z,12.60
2018-07-08T08:40:47.789Z,12.71
2018-07-08T08:42:19.107Z,12.62
2018-07-08T08:43:50.673Z,12.59
2018-07-08T08:45:22.243Z,12.57
2018-07-08T08:46:53.910Z,12.72
2018-07-08T08:48:25.378Z,12.70
2018-07-08T08:49:56.946Z,12.65
2018-07-08T08:51:28.515Z,12.68
2018-07-08T08:53:00.183Z,12.67
2018-07-08T08:54:31.651Z,12.68
2018-07-08T08:56:03.221Z,12.62
2018-07-08T08:57:34.789Z,12.62
2018-07-08T08:59:06.356Z,12.60
2018-07-08T09:00:37.925Z,12.65
2018-07-08T09:02:09.493Z,12.65
2018-07-08T09:03:41.113Z,12.68
2018-07-08T09:05:12.731Z,12.59
2018-07-08T09:06:44.208Z,12.59
2018-07-08T09:08:15.768Z,12.57
2018-07-08T09:09:47.335Z,12.57
2018-07-08T09:11:19.153Z,12.56
2018-07-08T09:12:50.471Z,12.59
2018-07-08T09:14:22.039Z,12.60
2018-07-08T09:15:53.607Z,12.71
2018-07-08T09:17:25.176Z,12.56
2018-07-08T09:18:56.744Z,12.59
2018-07-08T09:20:28.312Z,12.56
2018-07-08T09:21:59.880Z,12.47
2018-07-08T09:23:31.552Z,12.41
2018-07-08T09:25:03.017Z,12.47
2018-07-08T09:26:34.585Z,12.39
2018-07-08T09:28:06.154Z,12.46
2018-07-08T09:29:37.721Z,12.49
2018-07-08T09:31:09.290Z,12.56
2018-07-08T09:32:40.858Z,12.56
2018-07-08T09:34:12.426Z,12.45
2018-07-08T09:35:43.996Z,12.47
2018-07-08T09:37:15.562Z,12.42
2018-07-08T09:38:47.239Z,12.37
2018-07-08T09:40:18.702Z,12.35
2018-07-08T09:41:50.618Z,12.31
2018-07-08T09:43:21.836Z,12.31
2018-07-08T09:44:53.403Z,12.31
2018-07-08T09:46:24.971Z,12.35
2018-07-08T09:47:56.541Z,12.37
2018-07-08T09:49:28.111Z,12.32
2018-07-08T09:50:59.679Z,12.42
2018-07-08T09:52:31.320Z,12.45
2018-07-08T09:54:02.913Z,12.46
2018-07-08T09:55:34.380Z,12.49
2018-07-08T09:57:05.952Z,12.42
2018-07-08T09:58:37.517Z,12.62
2018-07-08T10:00:09.186Z,12.59
2018-07-08T10:03:12.222Z,12.68
2018-07-08T10:04:43.819Z,12.89
2018-07-08T10:06:15.359Z,13.03
2018-07-08T10:07:46.931Z,13.32
2018-07-08T10:09:18.699Z,13.70
2018-07-08T10:10:50.120Z,14.03
2018-07-08T10:12:21.883Z,14.22
2018-07-08T10:13:53.328Z,14.57
2018-07-08T10:15:24.771Z,14.88
2018-07-08T10:16:56.643Z,15.17
2018-07-08T10:18:28.010Z,15.47
2018-07-08T10:19:59.484Z,15.82
2018-07-08T10:21:31.074Z,16.21
2018-07-08T10:24:34.593Z,16.41
2018-07-08T10:26:05.759Z,16.63
2018-07-08T10:27:37.329Z,17.01
2018-07-08T10:29:08.899Z,17.21
2018-07-08T10:30:40.471Z,17.44
2018-07-08T10:32:12.044Z,17.84
2018-07-08T10:33:43.614Z,18.02
2018-07-08T10:35:15.185Z,18.17
2018-07-08T10:36:46.858Z,18.37
2018-07-08T10:38:18.375Z,18.67
2018-07-08T10:39:49.901Z,18.98
2018-07-08T10:41:21.473Z,19.23
2018-07-08T10:42:53.045Z,19.43
2018-07-08T10:45:56.194Z,19.78
2018-07-08T10:47:27.766Z,20.11
2018-07-08T10:48:59.349Z,20.28
2018-07-08T10:50:30.912Z,20.61
2018-07-08T10:52:02.488Z,20.88
2018-07-08T10:53:34.066Z,20.72
2018-07-08T10:55:05.736Z,21.10
2018-07-08T10:56:37.213Z,21.37
2018-07-08T10:58:08.787Z,21.52
2018-07-08T11:01:11.937Z,21.68
2018-07-08T11:02:43.513Z,21.82
2018-07-08T11:04:15.090Z,22.07
2018-07-08T11:07:18.243Z,21.86
2018-07-08T11:08:49.826Z,21.91
2018-07-08T11:10:21.395Z,21.61
2018-07-08T11:11:52.973Z,21.50
2018-07-08T11:13:24.902Z,21.32
2018-07-08T11:14:56.128Z,21.35
2018-07-08T11:16:27.704Z,21.49
2018-07-08T11:17:59.281Z,21.42
2018-07-08T11:19:30.860Z,21.43
2018-07-08T11:21:02.438Z,21.37
2018-07-08T11:22:34.014Z,21.43
2018-07-08T11:24:05.591Z,21.28
2018-07-08T11:25:37.291Z,21.52
2018-07-08T11:27:08.749Z,21.50
2018-07-08T11:28:40.671Z,21.74
2018-07-08T11:30:12.433Z,21.80
2018-07-08T11:31:43.580Z,21.92
2018-07-08T11:36:18.213Z,22.47
2018-07-08T11:37:49.791Z,23.00
2018-07-08T11:39:21.370Z,22.88
2018-07-08T11:40:52.949Z,22.72
2018-07-08T11:42:24.730Z,22.70
2018-07-08T11:43:56.356Z,22.86
2018-07-08T11:45:27.684Z,22.76
2018-07-08T11:46:59.264Z,22.51
2018-07-08T11:48:30.842Z,22.62
2018-07-08T11:50:02.723Z,22.52
2018-07-08T11:51:34.001Z,22.57
2018-07-08T11:53:05.580Z,22.31
2018-07-08T11:54:37.159Z,22.64
2018-07-08T11:56:08.738Z,22.51
2018-07-08T11:57:40.318Z,22.62
2018-07-08T11:59:11.897Z,22.73
2018-07-08T12:00:43.476Z,23.04
2018-07-08T12:02:15.056Z,23.20
2018-07-08T12:03:46.635Z,23.05
2018-07-08T12:05:18.215Z,23.17
2018-07-08T12:06:49.794Z,22.94
2018-07-08T12:08:21.485Z,23.19
2018-07-08T12:09:52.954Z,23.20
2018-07-08T12:11:24.533Z,23.66
2018-07-08T12:12:56.112Z,23.09
2018-07-08T12:14:27.974Z,23.27
2018-07-08T12:15:59.272Z,23.13
2018-07-08T12:17:30.853Z,23.78
2018-07-08T12:19:02.435Z,24.22
2018-07-08T12:20:34.012Z,24.24
2018-07-08T12:22:05.638Z,23.87
2018-07-08T12:23:37.173Z,24.34
2018-07-08T12:25:08.753Z,24.87
2018-07-08T12:26:40.434Z,25.03
2018-07-08T12:28:11.914Z,24.20
2018-07-08T12:29:43.495Z,24.49
2018-07-08T12:31:15.278Z,24.62
2018-07-08T12:32:46.657Z,24.40
2018-07-08T12:34:18.238Z,24.64
2018-07-08T12:35:49.818Z,24.34
2018-07-08T12:37:21.400Z,24.57
2018-07-08T12:40:24.563Z,25.00
2018-07-08T12:41:56.143Z,24.32
2018-07-08T12:43:27.723Z,24.98
2018-07-08T12:44:59.305Z,24.40
2018-07-08T12:46:30.986Z,24.21
2018-07-08T12:48:02.467Z,24.73
2018-07-08T12:49:34.049Z,24.24
2018-07-08T12:51:05.629Z,23.93
2018-07-08T12:52:37.212Z,23.79
2018-07-08T12:54:08.794Z,24.13
2018-07-08T12:55:40.908Z,24.31
2018-07-08T12:57:11.955Z,25.02
2018-07-08T12:58:43.694Z,24.83
2018-07-08T13:00:15.116Z,23.90
2018-07-08T13:01:47.001Z,24.85
2018-07-08T13:03:18.583Z,25.17
2018-07-08T13:04:50.893Z,24.91
2018-07-08T13:06:21.451Z,25.36
2018-07-08T13:07:53.023Z,25.51
2018-07-08T13:10:56.185Z,25.79
2018-07-08T13:13:59.349Z,25.36
2018-07-08T13:15:30.930Z,24.83
2018-07-08T13:18:35.484Z,24.96
2018-07-08T13:20:05.773Z,24.76
2018-07-08T13:21:37.257Z,25.40
2018-07-08T13:23:08.839Z,24.81
2018-07-08T13:24:40.723Z,25.42
2018-07-08T13:26:12.070Z,26.05
2018-07-08T13:27:43.786Z,26.21
2018-07-08T13:29:15.166Z,25.45
2018-07-08T13:30:47.051Z,25.14
2018-07-08T13:32:18.460Z,24.65
2018-07-08T13:33:49.913Z,24.62
2018-07-08T13:35:21.697Z,24.95
2018-07-08T13:36:53.077Z,25.47
2018-07-08T13:38:24.662Z,25.23
2018-07-08T13:39:56.241Z,26.33
2018-07-08T13:41:27.824Z,26.75
2018-07-08T13:42:59.708Z,26.10
2018-07-08T13:44:30.987Z,26.69
2018-07-08T13:47:34.152Z,26.06
2018-07-08T13:49:06.517Z,26.50
2018-07-08T13:50:37.316Z,25.61
2018-07-08T13:53:40.481Z,26.58
2018-07-08T13:56:43.646Z,26.26
2018-07-08T13:59:47.013Z,26.76
2018-07-08T14:01:18.395Z,27.10
2018-07-08T14:02:50.079Z,26.45
2018-07-08T14:04:21.560Z,26.40
2018-07-08T14:05:53.447Z,25.80
2018-07-08T14:07:24.726Z,25.72
2018-07-08T14:10:28.093Z,27.40
2018-07-08T14:11:59.475Z,26.73
2018-07-08T14:13:31.361Z,26.76
2018-07-08T14:15:02.645Z,27.29
2018-07-08T14:16:34.224Z,27.46
2018-07-08T14:19:37.924Z,27.49
2018-07-08T14:24:12.390Z,27.46
2018-07-08T14:25:43.814Z,26.91
2018-07-08T14:27:15.307Z,26.80
2018-07-08T14:30:18.475Z,27.31
2018-07-08T14:31:50.591Z,27.67
2018-07-08T14:33:21.641Z,27.43
2018-07-08T14:34:53.228Z,27.39
2018-07-08T14:36:25.213Z,27.65
2018-07-08T14:37:56.392Z,27.69
2018-07-08T14:39:27.976Z,27.04
2018-07-08T14:42:31.244Z,27.02
2018-07-08T14:44:02.728Z,26.91
2018-07-08T14:45:34.842Z,26.70
2018-07-08T14:47:05.893Z,27.62
2018-07-08T14:48:37.478Z,28.31
2018-07-08T14:50:09.061Z,28.37
2018-07-08T14:54:43.812Z,27.74
2018-07-08T14:56:15.708Z,28.11
2018-07-08T14:57:47.186Z,28.12
2018-07-08T14:59:18.867Z,27.96
2018-07-08T15:00:50.782Z,27.36
2018-07-08T15:02:21.733Z,27.70
2018-07-08T15:03:53.317Z,27.59
2018-07-08T15:05:25.507Z,27.27
2018-07-08T15:06:56.889Z,27.03
2018-07-08T15:08:28.067Z,27.75
2018-07-08T15:09:59.653Z,27.37
2018-07-08T15:11:31.768Z,27.55
2018-07-08T15:13:03.022Z,27.13
2018-07-08T15:14:34.409Z,27.63
2018-07-08T15:16:06.247Z,26.91
2018-07-08T15:17:37.576Z,27.34
2018-07-08T15:19:09.254Z,27.55
2018-07-08T15:20:40.738Z,27.57
2018-07-08T15:22:12.855Z,27.39
2018-07-08T15:23:44.209Z,28.22
2018-07-08T15:25:15.490Z,27.79
2018-07-08T15:26:47.073Z,27.65
2018-07-08T15:31:21.827Z,28.29
2018-07-08T15:32:53.613Z,28.17
2018-07-08T15:34:24.999Z,27.57
2018-07-08T15:35:56.785Z,28.34
2018-07-08T15:37:28.263Z,28.90
2018-07-08T15:38:59.746Z,28.86
2018-07-08T15:40:31.331Z,28.83
2018-07-08T15:43:34.701Z,28.25
2018-07-08T15:45:06.084Z,28.17
2018-07-08T15:46:37.670Z,28.19
2018-07-08T15:48:09.253Z,27.82
2018-07-08T15:49:41.347Z,28.29
2018-07-08T15:51:12.422Z,29.23
2018-07-08T15:54:15.593Z,28.39
2018-07-08T15:55:48.514Z,28.77
2018-07-08T15:57:18.760Z,29.14
2018-07-08T15:58:50.345Z,28.46
2018-07-08T16:00:21.930Z,28.12
2018-07-08T16:03:25.099Z,27.66
2018-07-08T16:04:56.684Z,27.93
2018-07-08T16:06:28.267Z,28.34
2018-07-08T16:07:59.851Z,28.77
2018-07-08T16:09:31.840Z,28.46
2018-07-08T16:11:03.021Z,28.19
2018-07-08T16:12:34.605Z,28.31
2018-07-08T16:14:06.190Z,28.96
2018-07-08T16:15:37.875Z,28.90
2018-07-08T16:17:10.092Z,29.04
2018-07-08T16:18:40.989Z,28.52
2018-07-08T16:20:12.831Z,28.27
2018-07-08T16:21:44.644Z,29.15
2018-07-08T16:23:15.696Z,28.78
2018-07-08T16:24:47.381Z,28.85
2018-07-08T16:27:50.461Z,29.19
2018-07-08T16:30:53.924Z,29.08
2018-07-08T16:32:25.204Z,29.04
2018-07-08T16:33:56.888Z,27.93
2018-07-08T16:35:28.372Z,29.11
2018-07-08T16:36:59.958Z,29.42
2018-07-08T16:38:31.542Z,28.48
2018-07-08T16:40:03.275Z,28.74
2018-07-08T16:41:34.929Z,29.28
2018-07-08T16:43:06.295Z,29.23
2018-07-08T16:44:37.880Z,29.39
2018-07-08T16:46:09.465Z,28.93
2018-07-08T16:47:41.049Z,28.78
2018-07-08T16:49:12.635Z,29.60
2018-07-08T16:52:15.904Z,29.42
2018-07-08T16:53:47.391Z,28.93
2018-07-08T16:55:19.173Z,28.66
2018-07-08T16:56:51.162Z,28.03
2018-07-08T16:58:22.141Z,28.02
2018-07-08T16:59:53.724Z,29.08
2018-07-08T17:01:25.309Z,28.11
2018-07-08T17:02:56.902Z,28.76
2018-07-08T17:04:29.009Z,29.53
2018-07-08T17:06:00.061Z,29.55
2018-07-08T17:07:31.645Z,28.93
2018-07-08T17:09:03.229Z,28.73
2018-07-08T17:12:06.802Z,29.43
2018-07-08T17:13:37.993Z,30.04
2018-07-08T17:15:09.566Z,30.83
2018-07-08T17:16:41.684Z,30.29
2018-07-08T17:18:12.937Z,28.78
2018-07-08T17:19:44.321Z,29.36
2018-07-08T17:21:15.910Z,29.18
2018-07-08T17:22:47.486Z,29.16
2018-07-08T17:24:19.171Z,30.04
2018-07-08T17:25:50.655Z,29.57
2018-07-08T17:27:22.239Z,28.96
2018-07-08T17:28:53.823Z,29.97
2018-07-08T17:30:25.508Z,30.69
2018-07-08T17:31:56.992Z,31.01
2018-07-08T17:33:28.581Z,29.94
2018-07-08T17:35:00.160Z,29.30
2018-07-08T17:36:31.744Z,29.23
2018-07-08T17:38:03.862Z,29.24
2018-07-08T17:39:34.917Z,29.53
2018-07-08T17:41:06.804Z,29.24
2018-07-08T17:42:38.080Z,29.58
2018-07-08T17:44:09.664Z,29.41
2018-07-08T17:45:41.252Z,29.94
2018-07-08T17:48:45.051Z,29.86
2018-07-08T17:50:15.999Z,29.15
2018-07-08T17:53:19.167Z,29.21
2018-07-08T17:54:51.008Z,30.11
2018-07-08T17:56:22.333Z,30.37
2018-07-08T17:57:53.917Z,29.57
2018-07-08T17:59:25.503Z,28.41
2018-07-08T18:02:28.668Z,29.55
2018-07-08T18:04:00.256Z,29.21
2018-07-08T18:07:03.418Z,29.12
2018-07-08T18:08:35.303Z,29.24
2018-07-08T18:10:06.585Z,29.98
2018-07-08T18:11:38.167Z,29.11
2018-07-08T18:13:09.753Z,28.89
2018-07-08T18:14:41.433Z,29.00
2018-07-08T18:17:44.804Z,29.45
2018-07-08T18:19:16.083Z,29.19
2018-07-08T18:20:47.668Z,28.51
2018-07-08T18:22:19.251Z,28.74
2018-07-08T18:25:22.414Z,28.88
2018-07-08T18:26:54.098Z,29.06
2018-07-08T18:28:25.579Z,29.33
2018-07-08T18:29:57.162Z,29.30
2018-07-08T18:31:28.984Z,29.65
2018-07-08T18:33:00.579Z,29.71
2018-07-08T18:34:31.913Z,29.41
2018-07-08T18:36:03.492Z,29.21
2018-07-08T18:37:35.075Z,29.46
2018-07-08T18:39:06.657Z,29.31
2018-07-08T18:40:38.240Z,29.31
2018-07-08T18:42:09.822Z,29.71
2018-07-08T18:43:41.404Z,30.19
2018-07-08T18:45:13.188Z,29.51
2018-07-08T18:46:44.573Z,29.21
2018-07-08T18:48:16.153Z,28.93
2018-07-08T18:52:50.899Z,30.10
2018-07-08T18:54:23.418Z,30.57
2018-07-08T18:55:54.063Z,28.92
2018-07-08T18:57:25.646Z,28.86
2018-07-08T18:58:57.228Z,28.39
2018-07-08T19:02:00.395Z,29.33
2018-07-08T19:03:31.974Z,28.61
2018-07-08T19:05:03.657Z,28.51
2018-07-08T19:06:35.138Z,28.89
2018-07-08T19:08:06.719Z,28.92
2018-07-08T19:09:38.301Z,29.00
2018-07-08T19:11:09.886Z,28.40
2018-07-08T19:12:41.465Z,28.49
2018-07-08T19:14:13.046Z,28.96
2018-07-08T19:15:44.630Z,28.41
2018-07-08T19:17:16.212Z,28.55
2018-07-08T19:18:47.790Z,28.03
2018-07-08T19:20:19.376Z,27.85
2018-07-08T19:21:50.953Z,28.12
2018-07-08T19:23:22.636Z,27.69
2018-07-08T19:24:54.115Z,28.17
2018-07-08T19:26:25.696Z,28.14
2018-07-08T19:27:57.581Z,28.52
2018-07-08T19:29:28.857Z,28.48
2018-07-08T19:31:00.463Z,28.24
2018-07-08T19:32:32.479Z,27.84
2018-07-08T19:34:04.206Z,27.84
2018-07-08T19:37:06.768Z,28.64
2018-07-08T19:38:38.343Z,28.11
2018-07-08T19:40:09.923Z,28.41
2018-07-08T19:43:13.985Z,28.17
2018-07-08T19:44:44.663Z,28.09
2018-07-08T19:46:16.393Z,27.94
2018-07-08T19:47:47.824Z,27.77
2018-07-08T19:49:19.607Z,27.29
2018-07-08T19:50:50.984Z,26.80
2018-07-08T19:52:22.564Z,27.14
2018-07-08T19:53:54.143Z,26.91
2018-07-08T19:55:25.724Z,26.92
2018-07-08T19:56:57.505Z,26.89
2018-07-08T19:58:29.188Z,26.89
2018-07-08T20:00:00.462Z,26.75
2018-07-08T20:01:32.141Z,26.77
2018-07-08T20:03:03.620Z,26.73
2018-07-08T20:04:35.199Z,26.48
2018-07-08T20:06:06.981Z,26.44
2018-07-08T20:07:38.384Z,26.35
2018-07-08T20:09:10.139Z,26.26
2018-07-08T20:10:41.821Z,26.12
2018-07-08T20:12:13.094Z,26.21
2018-07-08T20:13:44.676Z,26.12
2018-07-08T20:15:16.251Z,26.05
2018-07-08T20:16:47.830Z,25.77
2018-07-08T20:18:19.409Z,25.58
2018-07-08T20:19:51.491Z,25.42
2018-07-08T20:21:22.934Z,25.32
2018-07-08T20:22:54.145Z,25.21
2018-07-08T20:24:25.727Z,25.23
2018-07-08T20:25:57.300Z,25.03
2018-07-08T20:29:00.459Z,24.87
2018-07-08T20:30:32.037Z,24.73
2018-07-08T20:32:03.611Z,24.49
2018-07-08T20:33:35.492Z,24.35
2018-07-08T20:35:07.750Z,24.20
2018-07-08T20:36:38.388Z,23.94
2018-07-08T20:38:10.022Z,23.63
2018-07-08T20:39:41.498Z,23.40
2018-07-08T20:41:13.076Z,23.16
2018-07-08T20:42:44.654Z,22.95
2018-07-08T20:44:16.230Z,22.68
2018-07-08T20:45:47.806Z,22.52